Wetterdaten: Woche 24.01.11 - 30.01.11 (KW4)
Datum Zeit Temp. Innen Temp. Aussen UV X Diff Temp. Feuchte Inne Feuchte Auss Sonnenschein Luftdruck Regen ab 0,1 Wind Sonnenschein T Regendauer Windben
24.01.2011 00:00 12,6 C 4,7 C 0,0 UV-I 0,0 C 59 % 95 % 0 % 1026,3 hPa 0,0 l/m 2,8 km/h (1 Bft) 0,00 h 0,00 h 3,6 km/h (1 Bft)
24.01.2011 01:00 12,6 C 4,5 C 0,0 UV-I 0,0 C 58 % 95 % 0 % 1026,2 hPa 0,0 l/m 4,7 km/h (1 Bft) 0,00 h 0,00 h 5,7 km/h (1 Bft)
24.01.2011 02:00 12,6 C 4,3 C 0,0 UV-I 0,0 C 57 % 94 % 0 % 1026,4 hPa 0,0 l/m 5,4 km/h (1 Bft) 0,00 h 0,00 h 5,4 km/h (1 Bft)
24.01.2011 03:00 12,4 C 3,9 C 0,0 UV-I 0,0 C 57 % 94 % 0 % 1026,5 hPa 0,0 l/m 5,6 km/h (1 Bft) 0,00 h 0,00 h 8,2 km/h (2 Bft)
24.01.2011 04:00 12,4 C 3,6 C 0,0 UV-I 0,0 C 56 % 94 % 0 % 1026,5 hPa 0,0 l/m 5,3 km/h (1 Bft) 0,00 h 0,00 h 6,5 km/h (2 Bft)
24.01.2011 05:00 12,4 C 3,4 C 0,0 UV-I 0,0 C 56 % 93 % 0 % 1026,3 hPa 0,0 l/m 4,0 km/h (1 Bft) 0,00 h 0,00 h 3,0 km/h (1 Bft)
24.01.2011 06:00 12,3 C 3,2 C 0,0 UV-I 0,0 C 56 % 94 % 0 % 1026,0 hPa 0,0 l/m 0,1 km/h (0 Bft) 0,00 h 0,00 h 0,0 km/h (0 Bft)
24.01.2011 07:00 12,3 C 3,3 C 0,0 UV-I 0,0 C 56 % 94 % 0 % 1026,0 hPa 0,0 l/m 0,4 km/h (0 Bft) 0,00 h 0,00 h 0,5 km/h (0 Bft)
24.01.2011 08:00 12,1 C 3,5 C 0,0 UV-I 0,0 C 56 % 94 % 0 % 1025,8 hPa 0,0 l/m 0,8 km/h (0 Bft) 0,00 h 0,00 h 2,2 km/h (1 Bft)
24.01.2011 09:00 12,2 C 3,6 C 0,0 UV-I 0,0 C 57 % 95 % 0 % 1025,5 hPa 0,1 l/m 1,1 km/h (0 Bft) 0,00 h 0,00 h 1,2 km/h (1 Bft)
24.01.2011 10:00 12,3 C 4,1 C 0,1 UV-I 0,0 C 57 % 95 % 0 % 1025,8 hPa 0,0 l/m 3,3 km/h (1 Bft) 0,00 h 0,00 h 4,1 km/h (1 Bft)
24.01.2011 11:00 12,6 C 4,7 C 0,3 UV-I 0,1 C 57 % 94 % 3 % 1025,7 hPa 0,0 l/m 7,5 km/h (2 Bft) 0,00 h 0,00 h 8,5 km/h (2 Bft)
24.01.2011 12:00 12,8 C 5,1 C 0,4 UV-I 0,2 C 56 % 92 % 6 % 1025,6 hPa 0,0 l/m 9,6 km/h (2 Bft) 0,00 h 0,00 h 10,2 km/h (2 Bft)
24.01.2011 13:00 12,9 C 5,2 C 0,3 UV-I 0,4 C 56 % 93 % 12 % 1024,7 hPa 0,0 l/m 4,8 km/h (1 Bft) 0,00 h 0,00 h 5,1 km/h (1 Bft)
24.01.2011 14:00 13,0 C 5,1 C 0,0 UV-I 0,0 C 56 % 93 % 1 % 1024,0 hPa 0,0 l/m 1,4 km/h (1 Bft) 0,00 h 0,00 h 2,2 km/h (1 Bft)
24.01.2011 15:00 12,8 C 5,3 C 0,0 UV-I 0,0 C 57 % 94 % 0 % 1023,6 hPa 0,3 l/m 2,7 km/h (1 Bft) 0,00 h 0,00 h 3,0 km/h (1 Bft)
24.01.2011 16:00 12,8 C 5,5 C 0,0 UV-I 0,0 C 58 % 94 % 0 % 1023,5 hPa 0,3 l/m 5,4 km/h (1 Bft) 0,00 h 0,00 h 7,9 km/h (2 Bft)
24.01.2011 17:00 12,8 C 5,3 C 0,0 UV-I 0,0 C 58 % 93 % 0 % 1023,3 hPa 0,1 l/m 3,9 km/h (1 Bft) 0,00 h 0,00 h 3,5 km/h (1 Bft)
24.01.2011 18:00 12,7 C 5,0 C 0,0 UV-I 0,0 C 58 % 93 % 0 % 1023,2 hPa 0,0 l/m 1,7 km/h (1 Bft) 0,00 h 0,00 h 1,2 km/h (1 Bft)
24.01.2011 19:00 12,6 C 4,4 C 0,0 UV-I 0,0 C 57 % 93 % 0 % 1022,9 hPa 0,0 l/m 0,4 km/h (0 Bft) 0,00 h 0,00 h 0,8 km/h (0 Bft)
24.01.2011 20:00 12,4 C 4,4 C 0,0 UV-I 0,0 C 58 % 93 % 0 % 1022,7 hPa 0,0 l/m 1,1 km/h (1 Bft) 0,00 h 0,00 h 1,7 km/h (1 Bft)
24.01.2011 21:00 12,4 C 4,5 C 0,0 UV-I 0,0 C 58 % 93 % 0 % 1022,3 hPa 0,0 l/m 2,7 km/h (1 Bft) 0,00 h 0,00 h 4,0 km/h (1 Bft)
24.01.2011 22:00 12,4 C 4,4 C 0,0 UV-I 0,0 C 57 % 93 % 0 % 1021,9 hPa 0,0 l/m 4,7 km/h (1 Bft) 0,00 h 0,00 h 6,9 km/h (2 Bft)
24.01.2011 23:00 12,4 C 4,1 C 0,0 UV-I 0,0 C 57 % 93 % 0 % 1021,2 hPa 0,0 l/m 2,9 km/h (1 Bft) 0,00 h 0,00 h 4,2 km/h (1 Bft)
25.01.2011 00:00 12,3 C 4,1 C 0,0 UV-I 0,0 C 57 % 94 % 0 % 1020,5 hPa 0,0 l/m 5,0 km/h (1 Bft) 0,00 h 0,00 h 6,6 km/h (2 Bft)
25.01.2011 01:00 12,2 C 4,3 C 0,0 UV-I 0,0 C 57 % 94 % 0 % 1019,7 hPa 0,0 l/m 6,7 km/h (2 Bft) 0,00 h 0,00 h 7,3 km/h (2 Bft)
25.01.2011 02:00 12,2 C 4,3 C 0,0 UV-I 0,0 C 57 % 93 % 0 % 1018,8 hPa 0,0 l/m 7,1 km/h (2 Bft) 0,00 h 0,00 h 8,3 km/h (2 Bft)
25.01.2011 03:00 12,1 C 4,3 C 0,0 UV-I 0,0 C 57 % 92 % 0 % 1017,9 hPa 0,0 l/m 7,5 km/h (2 Bft) 0,00 h 0,00 h 8,2 km/h (2 Bft)
25.01.2011 04:00 12,0 C 4,1 C 0,0 UV-I 0,0 C 57 % 92 % 0 % 1017,0 hPa 0,0 l/m 9,3 km/h (2 Bft) 0,00 h 0,00 h 11,0 km/h (2 Bft)
25.01.2011 05:00 11,9 C 4,1 C 0,0 UV-I 0,0 C 57 % 92 % 0 % 1015,8 hPa 0,0 l/m 9,4 km/h (2 Bft) 0,00 h 0,00 h 9,4 km/h (2 Bft)
25.01.2011 06:00 11,8 C 4,0 C 0,0 UV-I 0,0 C 57 % 92 % 0 % 1014,4 hPa 0,1 l/m 10,4 km/h (2 Bft) 0,00 h 0,00 h 11,7 km/h (2 Bft)
25.01.2011 07:00 11,7 C 4,0 C 0,0 UV-I 0,0 C 57 % 93 % 0 % 1013,4 hPa 1,1 l/m 10,7 km/h (2 Bft) 0,00 h 0,00 h 11,4 km/h (2 Bft)
25.01.2011 08:00 11,6 C 4,1 C 0,0 UV-I 0,0 C 58 % 94 % 0 % 1013,0 hPa 0,3 l/m 12,0 km/h (2 Bft) 0,00 h 0,00 h 13,5 km/h (3 Bft)
25.01.2011 09:00 11,6 C 4,2 C 0,0 UV-I 0,0 C 59 % 94 % 0 % 1012,1 hPa 0,6 l/m 10,0 km/h (2 Bft) 0,00 h 0,00 h 11,0 km/h (2 Bft)
25.01.2011 10:00 11,6 C 4,4 C 0,0 UV-I 0,0 C 59 % 94 % 0 % 1011,3 hPa 0,1 l/m 10,5 km/h (2 Bft) 0,00 h 0,00 h 11,4 km/h (2 Bft)
25.01.2011 11:00 11,7 C 4,9 C 0,1 UV-I 0,0 C 60 % 94 % 0 % 1010,9 hPa 1,5 l/m 9,8 km/h (2 Bft) 0,00 h 0,00 h 10,7 km/h (2 Bft)
25.01.2011 12:00 11,9 C 4,6 C 0,1 UV-I 0,0 C 60 % 93 % 0 % 1010,8 hPa 0,7 l/m 6,6 km/h (2 Bft) 0,00 h 0,00 h 7,5 km/h (2 Bft)
25.01.2011 13:00 12,1 C 5,1 C 0,7 UV-I 0,1 C 59 % 93 % 2 % 1010,1 hPa 0,0 l/m 6,6 km/h (2 Bft) 0,00 h 0,00 h 8,0 km/h (2 Bft)
25.01.2011 14:00 13,2 C 6,4 C 1,0 UV-I 3,2 C 56 % 84 % 86 % 1010,5 hPa 0,1 l/m 11,2 km/h (2 Bft) 0,80 h 0,00 h 13,7 km/h (3 Bft)
25.01.2011 15:00 14,9 C 6,3 C 0,7 UV-I 3,1 C 49 % 78 % 80 % 1011,3 hPa 0,0 l/m 8,5 km/h (2 Bft) 0,83 h 0,00 h 10,5 km/h (2 Bft)
25.01.2011 16:00 14,8 C 5,5 C 0,2 UV-I 0,0 C 47 % 79 % 0 % 1010,4 hPa 0,0 l/m 4,1 km/h (1 Bft) 0,00 h 0,00 h 4,6 km/h (1 Bft)
25.01.2011 17:00 13,5 C 4,9 C 0,0 UV-I 0,0 C 48 % 80 % 0 % 1009,5 hPa 0,0 l/m 3,5 km/h (1 Bft) 0,00 h 0,00 h 4,3 km/h (1 Bft)
25.01.2011 18:00 12,5 C 4,1 C 0,0 UV-I 0,0 C 49 % 82 % 0 % 1009,3 hPa 0,0 l/m 3,1 km/h (1 Bft) 0,00 h 0,00 h 3,7 km/h (1 Bft)
25.01.2011 19:00 11,9 C 3,8 C 0,0 UV-I 0,0 C 51 % 85 % 0 % 1009,4 hPa 0,0 l/m 3,7 km/h (1 Bft) 0,00 h 0,00 h 4,7 km/h (1 Bft)
25.01.2011 20:00 11,6 C 3,2 C 0,0 UV-I 0,0 C 52 % 86 % 0 % 1009,1 hPa 0,0 l/m 0,6 km/h (0 Bft) 0,00 h 0,00 h 0,9 km/h (0 Bft)
25.01.2011 21:00 11,4 C 2,6 C 0,0 UV-I 0,0 C 52 % 88 % 0 % 1009,1 hPa 0,0 l/m 1,3 km/h (1 Bft) 0,00 h 0,00 h 2,0 km/h (1 Bft)
25.01.2011 22:00 11,1 C 2,1 C 0,0 UV-I 0,0 C 53 % 90 % 0 % 1008,8 hPa 0,0 l/m 2,2 km/h (1 Bft) 0,00 h 0,00 h 2,3 km/h (1 Bft)
25.01.2011 23:00 10,9 C 1,8 C 0,0 UV-I 0,0 C 53 % 90 % 0 % 1008,7 hPa 0,0 l/m 0,5 km/h (0 Bft) 0,00 h 0,00 h 0,8 km/h (0 Bft)
26.01.2011 00:00 10,8 C 1,1 C 0,0 UV-I 0,0 C 53 % 91 % 0 % 1008,7 hPa 0,0 l/m 0,2 km/h (0 Bft) 0,00 h 0,00 h 0,2 km/h (0 Bft)
26.01.2011 01:00 10,6 C 1,2 C 0,0 UV-I 0,0 C 53 % 92 % 0 % 1008,4 hPa 0,0 l/m 0,2 km/h (0 Bft) 0,00 h 0,00 h 0,6 km/h (0 Bft)
26.01.2011 02:00 10,4 C 1,2 C 0,0 UV-I 0,0 C 53 % 92 % 0 % 1007,9 hPa 0,0 l/m 0,1 km/h (0 Bft) 0,00 h 0,00 h 0,2 km/h (0 Bft)
26.01.2011 03:00 10,5 C 1,1 C 0,0 UV-I 0,0 C 54 % 92 % 0 % 1007,6 hPa 0,0 l/m 0,0 km/h (0 Bft) 0,00 h 0,00 h 0,0 km/h (0 Bft)
26.01.2011 04:00 10,6 C 1,1 C 0,0 UV-I 0,0 C 54 % 92 % 0 % 1007,6 hPa 0,0 l/m 0,0 km/h (0 Bft) 0,00 h 0,00 h 0,4 km/h (0 Bft)
26.01.2011 05:00 10,5 C 1,0 C 0,0 UV-I 0,0 C 54 % 93 % 0 % 1007,2 hPa 0,0 l/m 0,1 km/h (0 Bft) 0,00 h 0,00 h 0,1 km/h (0 Bft)
26.01.2011 06:00 10,7 C 0,9 C 0,0 UV-I 0,0 C 54 % 93 % 0 % 1007,0 hPa 0,0 l/m 0,1 km/h (0 Bft) 0,00 h 0,00 h 0,1 km/h (0 Bft)
26.01.2011 07:00 10,5 C 0,8 C 0,0 UV-I 0,0 C 54 % 93 % 0 % 1006,8 hPa 0,0 l/m 0,0 km/h (0 Bft) 0,00 h 0,00 h 0,0 km/h (0 Bft)
26.01.2011 08:00 10,6 C 0,8 C 0,0 UV-I 0,0 C 54 % 93 % 0 % 1007,1 hPa 0,0 l/m 0,0 km/h (0 Bft) 0,00 h 0,00 h 0,0 km/h (0 Bft)
26.01.2011 09:00 10,7 C 1,2 C 0,0 UV-I 0,0 C 54 % 94 % 0 % 1007,4 hPa 0,0 l/m 0,1 km/h (0 Bft) 0,00 h 0,00 h 0,2 km/h (0 Bft)
26.01.2011 10:00 11,0 C 1,8 C 0,0 UV-I 0,1 C 54 % 94 % 3 % 1007,9 hPa 0,0 l/m 0,9 km/h (0 Bft) 0,00 h 0,00 h 1,6 km/h (1 Bft)
26.01.2011 11:00 11,2 C 2,5 C 0,1 UV-I 0,8 C 54 % 93 % 22 % 1008,3 hPa 0,0 l/m 2,3 km/h (1 Bft) 0,00 h 0,00 h 3,1 km/h (1 Bft)
26.01.2011 12:00 11,6 C 3,1 C 0,1 UV-I 0,8 C 54 % 92 % 22 % 1008,7 hPa 0,0 l/m 1,2 km/h (1 Bft) 0,00 h 0,00 h 1,6 km/h (1 Bft)
26.01.2011 13:00 11,8 C 3,6 C 0,3 UV-I 0,9 C 55 % 91 % 26 % 1008,7 hPa 0,0 l/m 1,7 km/h (1 Bft) 0,00 h 0,00 h 2,7 km/h (1 Bft)
26.01.2011 14:00 12,5 C 4,6 C 0,6 UV-I 3,3 C 56 % 88 % 90 % 1009,2 hPa 0,0 l/m 2,0 km/h (1 Bft) 0,90 h 0,00 h 2,3 km/h (1 Bft)
26.01.2011 15:00 13,2 C 4,0 C 0,0 UV-I 0,5 C 53 % 86 % 15 % 1009,6 hPa 0,0 l/m 5,4 km/h (1 Bft) 0,07 h 0,00 h 6,1 km/h (2 Bft)
26.01.2011 16:00 12,8 C 3,7 C 0,0 UV-I 0,0 C 52 % 86 % 0 % 1009,6 hPa 0,0 l/m 5,1 km/h (1 Bft) 0,00 h 0,00 h 5,6 km/h (1 Bft)
26.01.2011 17:00 12,4 C 3,4 C 0,0 UV-I 0,0 C 53 % 86 % 0 % 1009,9 hPa 0,0 l/m 3,1 km/h (1 Bft) 0,00 h 0,00 h 2,9 km/h (1 Bft)
26.01.2011 18:00 12,1 C 3,0 C 0,0 UV-I 0,0 C 54 % 86 % 0 % 1010,8 hPa 0,0 l/m 1,3 km/h (1 Bft) 0,00 h 0,00 h 1,7 km/h (1 Bft)
26.01.2011 19:00 11,9 C 2,8 C 0,0 UV-I 0,0 C 54 % 86 % 0 % 1011,5 hPa 0,0 l/m 4,0 km/h (1 Bft) 0,00 h 0,00 h 4,8 km/h (1 Bft)
26.01.2011 20:00 11,9 C 2,2 C 0,0 UV-I 0,0 C 53 % 83 % 0 % 1012,1 hPa 0,0 l/m 4,1 km/h (1 Bft) 0,00 h 0,00 h 4,6 km/h (1 Bft)
26.01.2011 21:00 11,8 C 1,4 C 0,0 UV-I 0,0 C 52 % 83 % 0 % 1012,5 hPa 0,0 l/m 2,1 km/h (1 Bft) 0,00 h 0,00 h 2,6 km/h (1 Bft)
26.01.2011 22:00 11,7 C 1,2 C 0,0 UV-I 0,0 C 52 % 84 % 0 % 1013,3 hPa 0,0 l/m 1,0 km/h (0 Bft) 0,00 h 0,00 h 1,1 km/h (1 Bft)
26.01.2011 23:00 11,7 C 1,2 C 0,0 UV-I 0,0 C 52 % 85 % 0 % 1013,8 hPa 0,0 l/m 0,7 km/h (0 Bft) 0,00 h 0,00 h 1,2 km/h (1 Bft)
27.01.2011 00:00 11,7 C 1,2 C 0,0 UV-I 0,0 C 51 % 87 % 0 % 1014,4 hPa 0,0 l/m 0,7 km/h (0 Bft) 0,00 h 0,00 h 1,2 km/h (1 Bft)
27.01.2011 01:00 11,6 C 1,1 C 0,0 UV-I 0,0 C 51 % 87 % 0 % 1015,0 hPa 0,0 l/m 1,8 km/h (1 Bft) 0,00 h 0,00 h 2,6 km/h (1 Bft)
27.01.2011 02:00 11,6 C 0,8 C 0,0 UV-I 0,0 C 51 % 88 % 0 % 1015,0 hPa 0,0 l/m 2,7 km/h (1 Bft) 0,00 h 0,00 h 2,7 km/h (1 Bft)
27.01.2011 03:00 11,5 C 0,5 C 0,0 UV-I 0,0 C 51 % 89 % 0 % 1015,3 hPa 0,0 l/m 2,0 km/h (1 Bft) 0,00 h 0,00 h 2,5 km/h (1 Bft)
27.01.2011 04:00 11,3 C 0,6 C 0,0 UV-I 0,0 C 52 % 90 % 0 % 1015,6 hPa 0,0 l/m 1,6 km/h (1 Bft) 0,00 h 0,00 h 1,7 km/h (1 Bft)
27.01.2011 05:00 11,4 C 0,9 C 0,0 UV-I 0,0 C 52 % 92 % 0 % 1015,9 hPa 0,0 l/m 3,3 km/h (1 Bft) 0,00 h 0,00 h 3,3 km/h (1 Bft)
27.01.2011 06:00 11,4 C 1,4 C 0,0 UV-I 0,0 C 52 % 91 % 0 % 1016,5 hPa 0,0 l/m 1,9 km/h (1 Bft) 0,00 h 0,00 h 2,3 km/h (1 Bft)
27.01.2011 07:00 11,5 C 1,6 C 0,0 UV-I 0,0 C 52 % 90 % 0 % 1017,0 hPa 0,0 l/m 3,0 km/h (1 Bft) 0,00 h 0,00 h 4,2 km/h (1 Bft)
27.01.2011 08:00 11,5 C 1,6 C 0,0 UV-I 0,0 C 51 % 88 % 0 % 1017,6 hPa 0,0 l/m 5,2 km/h (1 Bft) 0,00 h 0,00 h 6,6 km/h (2 Bft)
27.01.2011 09:00 11,5 C 1,7 C 0,0 UV-I 0,0 C 51 % 87 % 0 % 1018,1 hPa 0,0 l/m 8,3 km/h (2 Bft) 0,00 h 0,00 h 8,6 km/h (2 Bft)
27.01.2011 10:00 11,5 C 1,9 C 0,0 UV-I 0,0 C 50 % 86 % 0 % 1018,8 hPa 0,0 l/m 7,4 km/h (2 Bft) 0,00 h 0,00 h 8,3 km/h (2 Bft)
27.01.2011 11:00 11,7 C 2,0 C 0,2 UV-I 0,0 C 49 % 84 % 0 % 1019,4 hPa 0,0 l/m 8,7 km/h (2 Bft) 0,00 h 0,00 h 9,0 km/h (2 Bft)
27.01.2011 12:00 11,9 C 2,3 C 0,7 UV-I 0,7 C 48 % 81 % 20 % 1019,9 hPa 0,0 l/m 8,0 km/h (2 Bft) 0,00 h 0,00 h 8,8 km/h (2 Bft)
27.01.2011 13:00 12,3 C 2,7 C 0,8 UV-I 1,6 C 47 % 75 % 44 % 1020,1 hPa 0,0 l/m 8,0 km/h (2 Bft) 0,00 h 0,00 h 8,8 km/h (2 Bft)
27.01.2011 14:00 12,9 C 2,8 C 0,8 UV-I 1,5 C 46 % 67 % 42 % 1020,7 hPa 0,0 l/m 8,0 km/h (2 Bft) 0,00 h 0,00 h 7,5 km/h (2 Bft)
27.01.2011 15:00 13,4 C 2,3 C 0,5 UV-I 1,6 C 43 % 64 % 46 % 1020,9 hPa 0,0 l/m 8,3 km/h (2 Bft) 0,47 h 0,00 h 7,9 km/h (2 Bft)
27.01.2011 16:00 13,5 C 1,5 C 0,1 UV-I 0,0 C 40 % 69 % 0 % 1020,6 hPa 0,0 l/m 6,0 km/h (2 Bft) 0,00 h 0,00 h 6,4 km/h (2 Bft)
27.01.2011 17:00 12,6 C 0,6 C 0,0 UV-I 0,0 C 41 % 73 % 0 % 1020,4 hPa 0,0 l/m 5,6 km/h (1 Bft) 0,00 h 0,00 h 6,0 km/h (2 Bft)
27.01.2011 18:00 11,9 C 0,0 C 0,0 UV-I 0,0 C 43 % 77 % 0 % 1020,8 hPa 0,0 l/m 6,5 km/h (2 Bft) 0,00 h 0,00 h 6,7 km/h (2 Bft)
27.01.2011 19:00 11,5 C -0,3 C 0,0 UV-I 0,0 C 44 % 77 % 0 % 1020,9 hPa 0,0 l/m 4,6 km/h (1 Bft) 0,00 h 0,00 h 4,7 km/h (1 Bft)
27.01.2011 20:00 11,3 C -0,5 C 0,0 UV-I 0,0 C 44 % 80 % 0 % 1021,3 hPa 0,0 l/m 5,5 km/h (1 Bft) 0,00 h 0,00 h 5,6 km/h (1 Bft)
27.01.2011 21:00 11,2 C -0,5 C 0,0 UV-I 0,0 C 44 % 81 % 0 % 1021,6 hPa 0,0 l/m 4,6 km/h (1 Bft) 0,00 h 0,00 h 5,2 km/h (1 Bft)
27.01.2011 22:00 11,2 C -0,6 C 0,0 UV-I 0,0 C 44 % 81 % 0 % 1022,0 hPa 0,0 l/m 5,1 km/h (1 Bft) 0,00 h 0,00 h 6,1 km/h (2 Bft)
27.01.2011 23:00 11,0 C -0,9 C 0,0 UV-I 0,0 C 45 % 80 % 0 % 1022,0 hPa 0,0 l/m 6,1 km/h (2 Bft) 0,00 h 0,00 h 6,3 km/h (2 Bft)
28.01.2011 00:00 11,0 C -1,1 C 0,0 UV-I 0,0 C 45 % 80 % 0 % 1022,2 hPa 0,0 l/m 5,0 km/h (1 Bft) 0,00 h 0,00 h 5,3 km/h (1 Bft)
28.01.2011 01:00 10,8 C -1,5 C 0,0 UV-I 0,0 C 45 % 80 % 0 % 1022,4 hPa 0,0 l/m 3,4 km/h (1 Bft) 0,00 h 0,00 h 3,7 km/h (1 Bft)
28.01.2011 02:00 10,8 C -1,9 C 0,0 UV-I 0,0 C 45 % 80 % 0 % 1022,4 hPa 0,0 l/m 1,0 km/h (0 Bft) 0,00 h 0,00 h 1,4 km/h (1 Bft)
28.01.2011 03:00 10,7 C -2,2 C 0,0 UV-I 0,0 C 45 % 81 % 0 % 1022,4 hPa 0,0 l/m 0,5 km/h (0 Bft) 0,00 h 0,00 h 1,2 km/h (1 Bft)
28.01.2011 04:00 10,7 C -2,3 C 0,0 UV-I 0,0 C 45 % 80 % 0 % 1022,4 hPa 0,0 l/m 2,0 km/h (1 Bft) 0,00 h 0,00 h 3,2 km/h (1 Bft)
28.01.2011 05:00 10,6 C -2,3 C 0,0 UV-I 0,0 C 44 % 80 % 0 % 1022,7 hPa 0,0 l/m 2,7 km/h (1 Bft) 0,00 h 0,00 h 2,7 km/h (1 Bft)
28.01.2011 06:00 10,5 C -2,8 C 0,0 UV-I 0,0 C 44 % 82 % 0 % 1022,7 hPa 0,0 l/m 0,1 km/h (0 Bft) 0,00 h 0,00 h 0,1 km/h (0 Bft)
28.01.2011 07:00 10,3 C -3,0 C 0,0 UV-I 0,0 C 44 % 84 % 0 % 1022,7 hPa 0,0 l/m 0,4 km/h (0 Bft) 0,00 h 0,00 h 0,2 km/h (0 Bft)
28.01.2011 08:00 10,3 C -3,1 C 0,0 UV-I 0,0 C 45 % 85 % 0 % 1022,7 hPa 0,0 l/m 1,0 km/h (0 Bft) 0,00 h 0,00 h 2,3 km/h (1 Bft)
28.01.2011 09:00 10,3 C -2,5 C 0,0 UV-I 0,1 C 45 % 84 % 2 % 1022,8 hPa 0,0 l/m 3,2 km/h (1 Bft) 0,00 h 0,00 h 4,5 km/h (1 Bft)
28.01.2011 10:00 10,4 C -1,2 C 0,0 UV-I 5,2 C 44 % 80 % 98 % 1023,2 hPa 0,0 l/m 5,7 km/h (1 Bft) 1,00 h 0,00 h 6,9 km/h (2 Bft)
28.01.2011 11:00 10,6 C 0,1 C 0,7 UV-I 6,5 C 44 % 76 % 100 % 1023,0 hPa 0,0 l/m 5,9 km/h (2 Bft) 1,00 h 0,00 h 6,0 km/h (2 Bft)
28.01.2011 12:00 10,8 C 1,3 C 1,0 UV-I 6,5 C 43 % 71 % 100 % 1022,8 hPa 0,0 l/m 6,5 km/h (2 Bft) 1,00 h 0,00 h 7,6 km/h (2 Bft)
28.01.2011 13:00 11,3 C 2,4 C 1,3 UV-I 6,2 C 44 % 67 % 100 % 1022,4 hPa 0,0 l/m 6,1 km/h (2 Bft) 1,00 h 0,00 h 7,1 km/h (2 Bft)
28.01.2011 14:00 12,8 C 2,8 C 1,0 UV-I 5,1 C 42 % 66 % 100 % 1023,4 hPa 0,0 l/m 7,1 km/h (2 Bft) 1,00 h 0,00 h 8,0 km/h (2 Bft)
28.01.2011 15:00 14,1 C 2,3 C 0,7 UV-I 4,0 C 42 % 68 % 93 % 1023,9 hPa 0,0 l/m 6,9 km/h (2 Bft) 0,97 h 0,00 h 6,9 km/h (2 Bft)
28.01.2011 16:00 14,0 C 1,3 C 0,2 UV-I 0,0 C 41 % 72 % 1 % 1022,5 hPa 0,0 l/m 4,7 km/h (1 Bft) 0,00 h 0,00 h 5,2 km/h (1 Bft)
28.01.2011 17:00 12,8 C 0,5 C 0,0 UV-I 0,0 C 43 % 75 % 0 % 1021,6 hPa 0,0 l/m 2,6 km/h (1 Bft) 0,00 h 0,00 h 3,0 km/h (1 Bft)
28.01.2011 18:00 11,9 C -0,1 C 0,0 UV-I 0,0 C 45 % 78 % 0 % 1021,4 hPa 0,0 l/m 1,8 km/h (1 Bft) 0,00 h 0,00 h 2,5 km/h (1 Bft)
28.01.2011 19:00 11,2 C -0,4 C 0,0 UV-I 0,0 C 47 % 79 % 0 % 1021,4 hPa 0,0 l/m 1,9 km/h (1 Bft) 0,00 h 0,00 h 2,4 km/h (1 Bft)
28.01.2011 20:00 10,9 C -0,9 C 0,0 UV-I 0,0 C 48 % 81 % 0 % 1021,3 hPa 0,0 l/m 0,3 km/h (0 Bft) 0,00 h 0,00 h 0,5 km/h (0 Bft)
28.01.2011 21:00 10,8 C -1,3 C 0,0 UV-I 0,0 C 50 % 83 % 0 % 1021,2 hPa 0,0 l/m 0,8 km/h (0 Bft) 0,00 h 0,00 h 1,9 km/h (1 Bft)
28.01.2011 22:00 10,7 C -1,4 C 0,0 UV-I 0,0 C 49 % 85 % 0 % 1021,4 hPa 0,0 l/m 0,5 km/h (0 Bft) 0,00 h 0,00 h 1,0 km/h (0 Bft)
28.01.2011 23:00 10,6 C -1,7 C 0,0 UV-I 0,0 C 49 % 85 % 0 % 1021,2 hPa 0,0 l/m 0,6 km/h (0 Bft) 0,00 h 0,00 h 1,2 km/h (1 Bft)
29.01.2011 00:00 10,5 C -2,1 C 0,0 UV-I 0,0 C 49 % 86 % 0 % 1020,9 hPa 0,0 l/m 0,1 km/h (0 Bft) 0,00 h 0,00 h 0,0 km/h (0 Bft)
29.01.2011 01:00 10,4 C -2,5 C 0,0 UV-I 0,0 C 48 % 88 % 0 % 1020,7 hPa 0,0 l/m 0,0 km/h (0 Bft) 0,00 h 0,00 h 0,6 km/h (0 Bft)
29.01.2011 02:00 10,3 C -2,8 C 0,0 UV-I 0,0 C 48 % 88 % 0 % 1020,4 hPa 0,0 l/m 0,1 km/h (0 Bft) 0,00 h 0,00 h 0,3 km/h (0 Bft)
29.01.2011 03:00 10,4 C -2,9 C 0,0 UV-I 0,0 C 48 % 89 % 0 % 1019,9 hPa 0,0 l/m 0,0 km/h (0 Bft) 0,00 h 0,00 h 0,0 km/h (0 Bft)
29.01.2011 04:00 10,3 C -3,1 C 0,0 UV-I 0,0 C 47 % 89 % 0 % 1019,9 hPa 0,0 l/m 0,1 km/h (0 Bft) 0,00 h 0,00 h 0,1 km/h (0 Bft)
29.01.2011 05:00 10,2 C -3,7 C 0,0 UV-I 0,0 C 47 % 90 % 0 % 1019,9 hPa 0,0 l/m 0,0 km/h (0 Bft) 0,00 h 0,00 h 0,0 km/h (0 Bft)
29.01.2011 06:00 10,1 C -4,5 C 0,0 UV-I 0,0 C 47 % 89 % 0 % 1019,5 hPa 0,0 l/m 0,0 km/h (0 Bft) 0,00 h 0,00 h 0,0 km/h (0 Bft)
29.01.2011 07:00 10,0 C -4,7 C 0,0 UV-I 0,0 C 46 % 91 % 0 % 1019,2 hPa 0,0 l/m 0,0 km/h (0 Bft) 0,00 h 0,00 h 0,0 km/h (0 Bft)
29.01.2011 08:00 9,9 C -4,9 C 0,0 UV-I 0,0 C 46 % 91 % 0 % 1019,5 hPa 0,0 l/m 0,0 km/h (0 Bft) 0,00 h 0,00 h 0,0 km/h (0 Bft)
29.01.2011 09:00 9,8 C -4,5 C 0,0 UV-I 0,1 C 46 % 91 % 2 % 1019,6 hPa 0,0 l/m 0,0 km/h (0 Bft) 0,00 h 0,00 h 0,0 km/h (0 Bft)
29.01.2011 10:00 9,9 C -2,2 C 0,0 UV-I 5,7 C 46 % 91 % 98 % 1019,6 hPa 0,0 l/m 2,1 km/h (1 Bft) 1,00 h 0,00 h 2,8 km/h (1 Bft)
29.01.2011 11:00 10,1 C -0,5 C 0,0 UV-I 7,5 C 46 % 88 % 100 % 1019,7 hPa 0,0 l/m 2,8 km/h (1 Bft) 1,00 h 0,00 h 3,4 km/h (1 Bft)
29.01.2011 12:00 10,4 C 1,1 C 0,2 UV-I 7,8 C 46 % 82 % 100 % 1019,4 hPa 0,0 l/m 4,1 km/h (1 Bft) 1,00 h 0,00 h 5,3 km/h (1 Bft)
29.01.2011 13:00 11,0 C 2,4 C 0,5 UV-I 7,0 C 46 % 76 % 100 % 1019,1 hPa 0,0 l/m 4,9 km/h (1 Bft) 1,00 h 0,00 h 5,2 km/h (1 Bft)
29.01.2011 14:00 12,5 C 2,8 C 0,3 UV-I 5,0 C 44 % 73 % 100 % 1020,2 hPa 0,0 l/m 8,2 km/h (2 Bft) 1,00 h 0,00 h 10,0 km/h (2 Bft)
29.01.2011 15:00 13,7 C 2,1 C 0,2 UV-I 2,7 C 41 % 76 % 77 % 1020,4 hPa 0,0 l/m 10,0 km/h (2 Bft) 0,93 h 0,00 h 9,4 km/h (2 Bft)
29.01.2011 16:00 13,6 C 1,3 C 0,0 UV-I 0,0 C 40 % 78 % 0 % 1019,4 hPa 0,0 l/m 8,6 km/h (2 Bft) 0,00 h 0,00 h 7,4 km/h (2 Bft)
29.01.2011 17:00 12,4 C 0,3 C 0,0 UV-I 0,0 C 42 % 81 % 0 % 1018,5 hPa 0,0 l/m 5,5 km/h (1 Bft) 0,00 h 0,00 h 5,7 km/h (1 Bft)
29.01.2011 18:00 11,5 C -0,5 C 0,0 UV-I 0,0 C 44 % 84 % 0 % 1018,4 hPa 0,0 l/m 4,9 km/h (1 Bft) 0,00 h 0,00 h 4,8 km/h (1 Bft)
29.01.2011 19:00 11,0 C -1,0 C 0,0 UV-I 0,0 C 46 % 85 % 0 % 1018,3 hPa 0,0 l/m 8,0 km/h (2 Bft) 0,00 h 0,00 h 8,7 km/h (2 Bft)
29.01.2011 20:00 10,7 C -1,6 C 0,0 UV-I 0,0 C 48 % 88 % 0 % 1018,7 hPa 0,0 l/m 8,5 km/h (2 Bft) 0,00 h 0,00 h 8,1 km/h (2 Bft)
29.01.2011 21:00 10,4 C -2,2 C 0,0 UV-I 0,0 C 48 % 89 % 0 % 1018,8 hPa 0,0 l/m 6,0 km/h (2 Bft) 0,00 h 0,00 h 5,6 km/h (1 Bft)
29.01.2011 22:00 10,3 C -2,7 C 0,0 UV-I 0,0 C 47 % 89 % 0 % 1019,3 hPa 0,0 l/m 5,9 km/h (2 Bft) 0,00 h 0,00 h 6,5 km/h (2 Bft)
29.01.2011 23:00 10,2 C -3,0 C 0,0 UV-I 0,0 C 47 % 90 % 0 % 1019,2 hPa 0,0 l/m 10,0 km/h (2 Bft) 0,00 h 0,00 h 10,3 km/h (2 Bft)
30.01.2011 00:00 10,2 C -3,5 C 0,0 UV-I 0,0 C 47 % 90 % 0 % 1019,4 hPa 0,0 l/m 4,0 km/h (1 Bft) 0,00 h 0,00 h 4,0 km/h (1 Bft)
30.01.2011 01:00 10,0 C -3,8 C 0,0 UV-I 0,0 C 47 % 90 % 0 % 1019,5 hPa 0,0 l/m 3,7 km/h (1 Bft) 0,00 h 0,00 h 5,2 km/h (1 Bft)
30.01.2011 02:00 9,9 C -3,7 C 0,0 UV-I 0,0 C 47 % 91 % 0 % 1019,4 hPa 0,0 l/m 1,8 km/h (1 Bft) 0,00 h 0,00 h 2,5 km/h (1 Bft)
30.01.2011 03:00 10,0 C -3,7 C 0,0 UV-I 0,0 C 47 % 91 % 0 % 1019,4 hPa 0,0 l/m 1,6 km/h (1 Bft) 0,00 h 0,00 h 2,2 km/h (1 Bft)
30.01.2011 04:00 10,0 C -4,2 C 0,0 UV-I 0,0 C 46 % 91 % 0 % 1018,9 hPa 0,0 l/m 1,8 km/h (1 Bft) 0,00 h 0,00 h 2,4 km/h (1 Bft)
30.01.2011 05:00 9,9 C -4,1 C 0,0 UV-I 0,0 C 46 % 91 % 0 % 1019,0 hPa 0,0 l/m 7,6 km/h (2 Bft) 0,00 h 0,00 h 8,7 km/h (2 Bft)
30.01.2011 06:00 9,9 C -4,1 C 0,0 UV-I 0,0 C 46 % 91 % 0 % 1019,1 hPa 0,0 l/m 6,0 km/h (2 Bft) 0,00 h 0,00 h 6,4 km/h (2 Bft)
30.01.2011 07:00 9,9 C -4,4 C 0,0 UV-I 0,0 C 46 % 91 % 0 % 1019,3 hPa 0,0 l/m 1,7 km/h (1 Bft) 0,00 h 0,00 h 1,7 km/h (1 Bft)
30.01.2011 08:00 9,7 C -5,0 C 0,0 UV-I 0,0 C 45 % 91 % 0 % 1019,6 hPa 0,0 l/m 6,5 km/h (2 Bft) 0,00 h 0,00 h 7,2 km/h (2 Bft)
30.01.2011 09:00 9,7 C -4,8 C 0,0 UV-I 0,1 C 45 % 91 % 2 % 1019,8 hPa 0,0 l/m 5,7 km/h (1 Bft) 0,00 h 0,00 h 5,7 km/h (1 Bft)
30.01.2011 10:00 9,7 C -3,3 C 0,0 UV-I 4,1 C 45 % 90 % 89 % 1020,2 hPa 0,0 l/m 3,3 km/h (1 Bft) 0,87 h 0,00 h 4,5 km/h (1 Bft)
30.01.2011 11:00 9,9 C -1,4 C 0,0 UV-I 7,0 C 45 % 84 % 100 % 1020,6 hPa 0,0 l/m 4,2 km/h (1 Bft) 0,97 h 0,00 h 4,5 km/h (1 Bft)
30.01.2011 12:00 10,2 C 0,3 C 0,0 UV-I 7,2 C 44 % 78 % 100 % 1020,7 hPa 0,0 l/m 4,5 km/h (1 Bft) 0,98 h 0,00 h 4,7 km/h (1 Bft)
30.01.2011 13:00 10,8 C 1,1 C 0,2 UV-I 5,4 C 44 % 77 % 100 % 1020,4 hPa 0,0 l/m 9,1 km/h (2 Bft) 1,00 h 0,00 h 9,8 km/h (2 Bft)
30.01.2011 14:00 12,3 C 2,0 C 0,0 UV-I 4,8 C 42 % 75 % 100 % 1021,6 hPa 0,0 l/m 6,9 km/h (2 Bft) 1,00 h 0,00 h 5,4 km/h (1 Bft)
30.01.2011 15:00 13,5 C 2,2 C 0,0 UV-I 3,8 C 39 % 76 % 92 % 1022,2 hPa 0,0 l/m 7,7 km/h (2 Bft) 1,00 h 0,00 h 8,4 km/h (2 Bft)
30.01.2011 16:00 13,4 C 1,4 C 0,0 UV-I 0,0 C 39 % 79 % 1 % 1021,1 hPa 0,0 l/m 8,7 km/h (2 Bft) 0,00 h 0,00 h 8,1 km/h (2 Bft)
30.01.2011 17:00 12,3 C 0,4 C 0,0 UV-I 0,0 C 41 % 83 % 0 % 1020,0 hPa 0,0 l/m 7,3 km/h (2 Bft) 0,00 h 0,00 h 7,2 km/h (2 Bft)
30.01.2011 18:00 11,3 C -0,5 C 0,0 UV-I 0,0 C 43 % 86 % 0 % 1020,0 hPa 0,0 l/m 7,3 km/h (2 Bft) 0,00 h 0,00 h 6,8 km/h (2 Bft)
30.01.2011 19:00 10,7 C -1,1 C 0,0 UV-I 0,0 C 45 % 88 % 0 % 1020,2 hPa 0,0 l/m 8,4 km/h (2 Bft) 0,00 h 0,00 h 8,2 km/h (2 Bft)
30.01.2011 20:00 10,4 C -1,6 C 0,0 UV-I 0,0 C 46 % 90 % 0 % 1020,7 hPa 0,0 l/m 4,9 km/h (1 Bft) 0,00 h 0,00 h 5,3 km/h (1 Bft)
30.01.2011 21:00 10,3 C -2,1 C 0,0 UV-I 0,0 C 46 % 90 % 0 % 1021,2 hPa 0,0 l/m 6,2 km/h (2 Bft) 0,00 h 0,00 h 5,7 km/h (1 Bft)
30.01.2011 22:00 10,2 C -2,4 C 0,0 UV-I 0,0 C 46 % 91 % 0 % 1021,1 hPa 0,0 l/m 2,5 km/h (1 Bft) 0,00 h 0,00 h 2,8 km/h (1 Bft)
30.01.2011 23:00 10,1 C -2,6 C 0,0 UV-I 0,0 C 46 % 91 % 0 % 1021,1 hPa 0,0 l/m 1,3 km/h (1 Bft) 0,00 h 0,00 h 1,7 km/h (1 Bft)
Min-Datum _ 30.01.11 29.01.11 24.01.11 24.01.11 30.01.11 27.01.11 24.01.11 26.01.11 - 24.01.11 - - 24.01.11
_ Min-Zeit 08:32 08:30 00:00 00:00 15:14 15:24 00:00 07:06 - 05:38 - - 00:08
Minimum _ 9,6 C -5,1 C 0,0 UV-I 0,0 C 39 % 63 % 0 % 1006,7 hPa - 0,0 km/h (0 Bft) - - 0,0 km/h (0 Bft)
Max-Datum _ 25.01.11 25.01.11 28.01.11 29.01.11 25.01.11 24.01.11 25.01.11 24.01.11 25.01.11 25.01.11 25.01.11 24.01.11 25.01.11
_ Max-Zeit 15:40 14:56 13:16 11:58 10:50 00:00 14:14 02:46 11:38 08:02 14:12 00:00 15:04
Maximum _ 15,3 C 6,8 C 1,5 UV-I 8,2 C 60 % 95 % 100 % 1026,6 hPa 1,5 l/m 15,3 km/h
SO (3 Bft)
0,03 h 0,00 h 34,1 km/h
SW (5 Bft)
Durchschnitt _ 11,5 C 1,0 C 0,1 UV-I 0,7 C 50 % 87 % 14 % 1018,2 hPa #5,2 l/m 4,1 km/h (1 Bft) #20:47 h #0 min. 4,6 km/h (1 Bft)
© 2012 W. Hausmann